createdAt,value
2018-02-25T01:55:42.882Z,102617
2018-02-25T01:58:12.979Z,102617
2018-02-25T02:00:42.924Z,102626
2018-02-25T02:03:13.104Z,102611
2018-02-25T02:05:43.086Z,102610
2018-02-25T02:08:13.139Z,102610
2018-02-25T03:30:52.760Z,102604
2018-02-25T03:33:22.690Z,102600
2018-02-25T03:35:52.635Z,102607
2018-02-25T03:38:22.557Z,102607
2018-02-25T04:48:42.808Z,102606
2018-02-25T04:51:12.720Z,102607
2018-02-25T04:53:43.391Z,102610
2018-02-25T04:56:13.289Z,102604
2018-02-25T04:58:43.288Z,102604
2018-02-25T05:28:58.336Z,102622
2018-02-25T05:31:28.266Z,102622
2018-02-25T05:33:58.231Z,102619
2018-02-25T05:36:28.174Z,102621
2018-02-25T05:38:58.097Z,102618
2018-02-25T06:49:17.852Z,102630
2018-02-25T07:56:05.276Z,102656
2018-02-25T07:58:35.238Z,102647
2018-02-25T08:22:31.463Z,102639
2018-02-25T08:25:01.439Z,102656
2018-02-25T08:27:31.555Z,102651
2018-02-25T08:58:00.157Z,102642
2018-02-25T09:25:11.397Z,102623
2018-02-25T09:27:41.477Z,102622
2018-02-25T09:48:32.762Z,102625
2018-02-25T09:51:24.784Z,102613
2018-02-25T09:53:54.918Z,102617
2018-02-25T09:56:24.879Z,102616
2018-02-25T09:58:54.877Z,102609
2018-02-25T10:04:31.276Z,102606
2018-02-25T10:07:01.868Z,102609
2018-02-25T10:18:48.794Z,102595
2018-02-25T10:27:20.277Z,102582
2018-02-25T10:32:56.295Z,102579
2018-02-25T10:35:26.425Z,102583
2018-02-25T10:37:56.414Z,102579
2018-02-25T10:46:44.098Z,102276
2018-02-25T10:49:14.230Z,102557
2018-02-25T10:51:44.580Z,102553
2018-02-25T10:54:14.677Z,102561
2018-02-25T10:56:44.682Z,102556
2018-02-25T10:59:14.797Z,102552
2018-02-25T11:01:44.717Z,102546
2018-02-25T11:04:14.709Z,102534
2018-02-25T11:06:44.652Z,102544
2018-02-25T11:09:14.968Z,102547
2018-02-25T11:11:45.644Z,102534
2018-02-25T11:14:15.716Z,102533
2018-02-25T11:16:46.409Z,102540
2018-02-25T11:19:16.521Z,102529
2018-02-25T11:31:02.416Z,102309
2018-02-25T11:33:32.350Z,102524
2018-02-25T11:36:02.388Z,102520
2018-02-25T11:38:33.220Z,102509
2018-02-25T11:55:51.323Z,102508
2018-02-25T11:58:21.459Z,102504
2018-02-25T12:00:59.597Z,102498
2018-02-25T12:03:29.587Z,102499
2018-02-25T12:05:59.492Z,102497
2018-02-25T12:08:29.369Z,102505
2018-02-25T12:17:00.181Z,102497
2018-02-25T12:19:44.059Z,102481
2018-02-25T12:22:13.943Z,102495
2018-02-25T12:24:43.974Z,102494
2018-02-25T12:27:13.840Z,102500
2018-02-25T12:29:43.722Z,102487
2018-02-25T12:32:13.573Z,102486
2018-02-25T12:34:43.472Z,102497
2018-02-25T12:37:13.410Z,102487
2018-02-25T12:39:43.339Z,102488
2018-02-25T12:42:13.197Z,102500
2018-02-25T12:44:43.068Z,102489
2018-02-25T12:47:12.983Z,102485
2018-02-25T12:49:42.845Z,102480
2018-02-25T12:52:12.704Z,102498
2018-02-25T12:54:42.561Z,102480
2018-02-25T12:57:12.507Z,102477
2018-02-25T12:59:42.399Z,102474
2018-02-25T13:02:12.303Z,102474
2018-02-25T13:04:42.199Z,102468
2018-02-25T13:07:12.108Z,102477
2018-02-25T13:09:42.135Z,102464
2018-02-25T13:12:12.001Z,102464
2018-02-25T13:14:41.975Z,102471
2018-02-25T13:17:11.858Z,102475
2018-02-25T13:22:47.663Z,102466
2018-02-25T13:25:17.771Z,102467
2018-02-25T13:27:47.772Z,102450
2018-02-25T13:36:20.200Z,102453
2018-02-25T13:38:50.709Z,102452
2018-02-25T13:41:24.423Z,102458
2018-02-25T13:43:57.226Z,102458
2018-02-25T13:49:21.582Z,102456
2018-02-25T13:51:53.956Z,102463
2018-02-25T13:54:36.063Z,102446
2018-02-25T14:00:21.117Z,102456
2018-02-25T14:02:52.313Z,102457
2018-02-25T14:05:22.429Z,102459
2018-02-25T14:10:38.721Z,102455
2018-02-25T14:13:15.596Z,102453
2018-02-25T14:15:46.131Z,102435
2018-02-25T14:18:16.263Z,102442
2018-02-25T14:20:46.133Z,102447
2018-02-25T14:23:16.189Z,102432
2018-02-25T14:25:46.094Z,102438
2018-02-25T14:28:15.957Z,102435
2018-02-25T14:30:46.184Z,102442
2018-02-25T14:33:16.027Z,102437
2018-02-25T14:35:45.962Z,102429
2018-02-25T14:38:15.962Z,102435
2018-02-25T14:40:46.748Z,102435
2018-02-25T14:43:20.870Z,102426
2018-02-25T14:45:57.866Z,102427
2018-02-25T14:48:37.858Z,102422
2018-02-25T14:51:12.573Z,102431
2018-02-25T14:53:48.932Z,102433
2018-02-25T14:56:21.206Z,102421
2018-02-25T14:58:51.129Z,102442
2018-02-25T15:01:24.389Z,102427
2018-02-25T15:03:54.379Z,102427
2018-02-25T15:06:24.275Z,102432
2018-02-25T15:08:54.479Z,102424
2018-02-25T15:11:24.645Z,102430
2018-02-25T15:13:54.642Z,102428
2018-02-25T15:16:24.510Z,102433
2018-02-25T15:18:54.391Z,102427
2018-02-25T15:21:24.363Z,102435
2018-02-25T15:23:55.193Z,102433
2018-02-25T15:26:25.061Z,102428
2018-02-25T15:28:55.015Z,102423
2018-02-25T15:31:25.330Z,102426
2018-02-25T15:33:55.330Z,102425
2018-02-25T15:36:25.232Z,102424
2018-02-25T15:38:55.226Z,102429
2018-02-25T15:41:25.113Z,102426
2018-02-25T15:43:55.063Z,102429
2018-02-25T15:46:25.033Z,102430
2018-02-25T15:48:54.945Z,102430
2018-02-25T15:51:24.774Z,102428
2018-02-25T15:53:54.860Z,102434
2018-02-25T15:56:24.897Z,102428
2018-02-25T15:58:54.951Z,102436
2018-02-25T16:01:24.805Z,102429
2018-02-25T16:03:54.706Z,102434
2018-02-25T16:06:24.570Z,102429
2018-02-25T16:08:54.661Z,102432
2018-02-25T16:11:24.560Z,102429
2018-02-25T16:13:54.622Z,102434
2018-02-25T16:16:24.537Z,102442
2018-02-25T16:18:54.493Z,102437
2018-02-25T16:21:24.724Z,102448
2018-02-25T16:23:54.636Z,102445
2018-02-25T16:26:24.507Z,102437
2018-02-25T16:28:54.517Z,102450
2018-02-25T16:31:24.358Z,102446
2018-02-25T16:33:54.347Z,102449
2018-02-25T16:36:24.194Z,102451
2018-02-25T16:38:54.153Z,102442
2018-02-25T16:41:23.975Z,102445
2018-02-25T16:43:53.841Z,102447
2018-02-25T16:46:23.806Z,102446
2018-02-25T16:48:53.686Z,102451
2018-02-25T16:51:23.598Z,102453
2018-02-25T16:53:53.617Z,102453
2018-02-25T16:56:23.703Z,102462
2018-02-25T16:58:53.546Z,102467
2018-02-25T17:01:23.468Z,102460
2018-02-25T17:03:53.366Z,102460
2018-02-25T17:06:23.429Z,102464
2018-02-25T17:08:53.311Z,102461
2018-02-25T17:11:23.229Z,102462
2018-02-25T17:13:53.218Z,102470
2018-02-25T17:16:23.108Z,102470
2018-02-25T17:18:53.003Z,102466
2018-02-25T17:21:22.850Z,102467
2018-02-25T17:23:52.747Z,102470
2018-02-25T17:26:23.257Z,102475
2018-02-25T17:28:53.140Z,102481
2018-02-25T17:31:23.269Z,102485
2018-02-25T17:33:53.143Z,102480
2018-02-25T17:36:23.005Z,102478
2018-02-25T17:38:52.860Z,102484
2018-02-25T17:41:22.790Z,102477
2018-02-25T17:43:52.706Z,102472
2018-02-25T17:46:22.644Z,102475
2018-02-25T17:48:52.518Z,102474
2018-02-25T17:51:22.447Z,102483
2018-02-25T17:53:52.839Z,102476
2018-02-25T17:56:22.827Z,102477
2018-02-25T17:58:52.924Z,102483
2018-02-25T18:01:22.889Z,102477
2018-02-25T18:03:52.777Z,102475
2018-02-25T18:06:22.761Z,102470
2018-02-25T18:08:52.656Z,102481
2018-02-25T18:11:22.595Z,102480
2018-02-25T18:13:52.455Z,102483
2018-02-25T18:16:23.160Z,102482
2018-02-25T18:18:53.067Z,102472
2018-02-25T18:21:23.047Z,102482
2018-02-25T18:23:52.957Z,102476
2018-02-25T18:26:22.881Z,102480
2018-02-25T18:28:53.791Z,102487
2018-02-25T18:31:25.869Z,102478
2018-02-25T18:33:56.106Z,102481
2018-02-25T18:36:26.256Z,102479
2018-02-25T18:38:56.134Z,102479
2018-02-25T18:41:26.163Z,102481
2018-02-25T18:43:56.058Z,102471
2018-02-25T18:46:26.960Z,102473
2018-02-25T18:48:57.062Z,102477
2018-02-25T18:51:27.041Z,102479
2018-02-25T18:53:56.935Z,102477
2018-02-25T18:56:26.918Z,102485
2018-02-25T18:58:56.924Z,102482
2018-02-25T19:01:26.985Z,102484
2018-02-25T19:03:57.095Z,102481
2018-02-25T19:06:27.008Z,102476
2018-02-25T19:08:57.223Z,102479
2018-02-25T19:11:27.303Z,102482
2018-02-25T19:13:57.246Z,102479
2018-02-25T19:16:28.356Z,102486
2018-02-25T19:18:58.310Z,102492
2018-02-25T19:21:28.305Z,102488
2018-02-25T19:23:58.186Z,102488
2018-02-25T19:26:28.078Z,102494
2018-02-25T19:28:58.011Z,102494
2018-02-25T19:31:27.975Z,102490
2018-02-25T19:33:57.877Z,102493
2018-02-25T19:36:34.331Z,102492
2018-02-25T19:39:22.842Z,102489
2018-02-25T19:41:54.315Z,102488
2018-02-25T19:44:24.270Z,102491
2018-02-25T19:46:56.324Z,102489
2018-02-25T19:49:26.383Z,102495
2018-02-25T19:51:56.316Z,102491
2018-02-25T19:54:26.785Z,102490
2018-02-25T19:56:57.244Z,102486
2018-02-25T19:59:27.637Z,102488
2018-02-25T20:01:57.721Z,102488
2018-02-25T20:04:27.628Z,102492
2018-02-25T20:06:58.346Z,102489
2018-02-25T20:09:28.214Z,102496
2018-02-25T20:11:58.133Z,102496
2018-02-25T20:14:28.212Z,102490
2018-02-25T20:16:58.057Z,102493
2018-02-25T20:19:28.397Z,102491
2018-02-25T20:21:58.334Z,102488
2018-02-25T20:24:28.339Z,102485
2018-02-25T20:26:58.447Z,102487
2018-02-25T20:29:28.301Z,102495
2018-02-25T20:31:58.224Z,102489
2018-02-25T20:34:28.189Z,102489
2018-02-25T20:36:58.383Z,102494
2018-02-25T20:39:28.308Z,102489
2018-02-25T20:41:58.201Z,102495
2018-02-25T20:44:28.063Z,102498
2018-02-25T20:46:57.959Z,102495
2018-02-25T20:49:27.934Z,102504
2018-02-25T20:51:57.788Z,102500
2018-02-25T20:54:27.817Z,102501
2018-02-25T20:56:57.753Z,102495
2018-02-25T20:59:27.710Z,102497
2018-02-25T21:01:57.741Z,102499
2018-02-25T21:04:27.700Z,102506
2018-02-25T21:06:57.578Z,102500
2018-02-25T21:09:27.620Z,102500
2018-02-25T21:11:57.589Z,102505
2018-02-25T21:14:27.457Z,102507
2018-02-25T21:16:57.351Z,102499
2018-02-25T21:19:27.246Z,102491
2018-02-25T21:21:57.237Z,102490
2018-02-25T21:24:27.161Z,102492
2018-02-25T21:26:57.229Z,102490
2018-02-25T21:29:27.129Z,102498
2018-02-25T21:31:57.021Z,102500
2018-02-25T21:34:26.983Z,102501
2018-02-25T21:36:57.008Z,102507
2018-02-25T21:39:26.904Z,102504
2018-02-25T21:41:56.788Z,102504
2018-02-25T21:44:26.723Z,102495
2018-02-25T21:46:56.763Z,102502
2018-02-25T21:49:26.705Z,102505
2018-02-25T21:51:56.597Z,102499
2018-02-25T21:54:32.165Z,102506
2018-02-25T21:57:07.758Z,102493
2018-02-25T21:59:43.046Z,102501
2018-02-25T22:02:18.819Z,102495
2018-02-25T22:04:48.805Z,102492
2018-02-25T22:07:18.726Z,102492
2018-02-25T22:09:48.726Z,102492
2018-02-25T22:12:19.070Z,102488
2018-02-25T22:14:49.071Z,102487
2018-02-25T22:17:18.972Z,102491
2018-02-25T22:19:48.839Z,102496
2018-02-25T22:22:18.819Z,102497
2018-02-25T22:24:48.679Z,102490
2018-02-25T22:27:18.770Z,102499
2018-02-25T22:29:48.686Z,102489
2018-02-25T22:32:18.586Z,102500
2018-02-25T22:34:48.620Z,102498
2018-02-25T22:37:18.529Z,102503
2018-02-25T22:39:48.393Z,102508
2018-02-25T22:42:18.323Z,102502
2018-02-25T22:44:48.400Z,102503
2018-02-25T22:47:18.469Z,102507
2018-02-25T22:49:49.080Z,102512
2018-02-25T22:52:19.685Z,102508
2018-02-25T22:54:49.574Z,102515
2018-02-25T22:57:19.492Z,102509
2018-02-25T22:59:49.365Z,102510
2018-02-25T23:02:19.411Z,102513
2018-02-25T23:04:49.278Z,102505
2018-02-25T23:07:19.180Z,102510
2018-02-25T23:09:49.041Z,102505
2018-02-25T23:12:19.753Z,102512
2018-02-25T23:14:49.638Z,102517
2018-02-25T23:17:19.563Z,102516
2018-02-25T23:19:49.394Z,102515
2018-02-25T23:22:20.102Z,102509
2018-02-25T23:24:50.001Z,102516
2018-02-25T23:27:19.868Z,102516
2018-02-25T23:29:49.737Z,102515
2018-02-25T23:32:19.618Z,102523
2018-02-25T23:34:50.350Z,102521
2018-02-25T23:37:20.291Z,102519
2018-02-25T23:39:50.161Z,102515
2018-02-25T23:42:20.018Z,102522
2018-02-25T23:44:49.957Z,102512
2018-02-25T23:47:19.930Z,102508
2018-02-25T23:49:49.786Z,102515
2018-02-25T23:52:19.674Z,102513
2018-02-25T23:54:50.426Z,102511
2018-02-25T23:57:20.426Z,102520
2018-02-25T23:59:50.265Z,102512
